createdAt,value
2022-09-02T00:27:57.842Z,1.50
2022-09-02T00:30:29.193Z,1.67
2022-09-02T00:32:58.363Z,1.73
2022-09-02T00:35:27.982Z,1.53
2022-09-02T00:37:57.027Z,1.80
2022-09-02T00:40:28.751Z,1.50
2022-09-02T00:42:59.168Z,1.70
2022-09-02T00:45:28.987Z,1.60
2022-09-02T00:47:58.524Z,1.77
2022-09-02T00:50:32.477Z,1.60
2022-09-02T00:53:08.443Z,1.77
2022-09-02T00:55:45.285Z,1.60
2022-09-02T00:58:20.908Z,1.63
2022-09-02T01:00:56.689Z,1.73
2022-09-02T01:03:30.628Z,1.70
2022-09-02T01:06:02.852Z,1.50
2022-09-02T01:08:36.399Z,1.43
2022-09-02T01:11:08.135Z,1.70
2022-09-02T01:13:40.646Z,2.00
2022-09-02T01:16:18.820Z,1.60
2022-09-02T01:18:54.808Z,1.50
2022-09-02T01:21:25.020Z,1.80
2022-09-02T01:23:56.419Z,1.50
2022-09-02T01:26:25.783Z,1.50
2022-09-02T01:28:55.340Z,1.70
2022-09-02T01:31:24.773Z,1.50
2022-09-02T01:33:55.227Z,1.43
2022-09-02T01:36:24.642Z,1.57
2022-09-02T01:38:55.510Z,1.50
2022-09-02T01:41:25.085Z,1.60
2022-09-02T01:43:54.740Z,1.30
2022-09-02T01:46:24.670Z,1.73
2022-09-02T01:48:54.758Z,1.60
2022-09-02T01:51:24.813Z,1.73
2022-09-02T01:53:55.925Z,1.60
2022-09-02T01:56:25.282Z,1.70
2022-09-02T01:58:55.516Z,2.00
2022-09-02T02:01:25.146Z,1.50
2022-09-02T02:03:55.319Z,1.50
2022-09-02T02:06:26.913Z,1.67
2022-09-02T02:08:58.685Z,1.80
2022-09-02T02:11:29.950Z,1.30
2022-09-02T02:14:01.687Z,1.40
2022-09-02T02:16:31.257Z,1.67
2022-09-02T02:19:01.095Z,1.50
2022-09-02T02:21:30.672Z,1.40
2022-09-02T02:24:01.640Z,1.43
2022-09-02T02:26:32.801Z,1.50
2022-09-02T02:29:02.398Z,1.50
2022-09-02T02:31:32.161Z,1.20
2022-09-02T02:34:01.964Z,1.57
2022-09-02T02:36:31.616Z,1.43
2022-09-02T02:39:02.724Z,1.60
2022-09-02T02:41:32.609Z,1.20
2022-09-02T02:44:02.766Z,1.50
2022-09-02T02:46:33.574Z,1.40
2022-09-02T02:49:03.783Z,1.50
2022-09-02T02:51:33.860Z,1.43
2022-09-02T02:54:05.854Z,1.47
2022-09-02T02:56:35.748Z,1.40
2022-09-02T02:59:06.198Z,1.10
2022-09-02T03:01:36.490Z,1.53
2022-09-02T03:04:07.917Z,1.50
2022-09-02T03:06:37.537Z,1.60
2022-09-02T03:09:08.372Z,1.53
2022-09-02T03:11:39.751Z,1.43
2022-09-02T03:14:09.924Z,1.53
2022-09-02T03:16:40.041Z,1.37
2022-09-02T03:19:09.774Z,1.33
2022-09-02T03:21:39.455Z,1.60
2022-09-02T03:24:14.115Z,1.40
2022-09-02T03:26:44.388Z,1.67
2022-09-02T03:29:15.264Z,1.30
2022-09-02T03:31:46.228Z,1.40
2022-09-02T03:34:16.079Z,1.23
2022-09-02T03:36:45.934Z,1.20
2022-09-02T03:39:18.118Z,1.17
2022-09-02T03:41:50.434Z,1.60
2022-09-02T03:44:20.413Z,1.40
2022-09-02T03:46:50.193Z,1.40
2022-09-02T03:49:19.634Z,1.10
2022-09-02T03:51:49.113Z,1.33
2022-09-02T03:54:20.425Z,1.17
2022-09-02T03:56:50.074Z,1.23
2022-09-02T03:59:21.287Z,1.27
2022-09-02T04:01:51.579Z,1.30
2022-09-02T04:04:22.945Z,1.60
2022-09-02T04:06:54.534Z,1.23
2022-09-02T04:09:25.635Z,1.20
2022-09-02T04:11:55.863Z,1.27
2022-09-02T04:14:25.808Z,1.30
2022-09-02T04:16:55.718Z,1.20
2022-09-02T04:19:26.145Z,1.20
2022-09-02T04:21:55.741Z,1.30
2022-09-02T04:24:26.664Z,1.30
2022-09-02T04:26:59.498Z,1.30
2022-09-02T04:29:34.317Z,1.30
2022-09-02T04:32:04.689Z,1.10
2022-09-02T04:34:34.601Z,1.23
2022-09-02T04:37:06.224Z,1.20
2022-09-02T04:39:40.982Z,1.20
2022-09-02T04:42:12.129Z,1.23
2022-09-02T04:44:46.596Z,1.10
2022-09-02T04:47:19.580Z,1.20
2022-09-02T04:49:52.082Z,1.20
2022-09-02T04:52:25.818Z,1.37
2022-09-02T04:55:00.467Z,1.27
2022-09-02T04:57:37.690Z,1.20
2022-09-02T05:00:12.522Z,1.40
2022-09-02T05:02:44.083Z,1.10
2022-09-02T05:05:15.221Z,1.20
2022-09-02T05:07:45.282Z,1.10
2022-09-02T05:10:16.541Z,1.30
2022-09-02T05:12:48.949Z,1.30
2022-09-02T05:15:19.879Z,1.53
2022-09-02T05:17:50.563Z,1.13
2022-09-02T05:20:21.007Z,1.30
2022-09-02T05:22:56.263Z,1.40
2022-09-02T05:25:35.271Z,1.00
2022-09-02T05:28:16.835Z,1.13
2022-09-02T05:30:49.070Z,1.10
2022-09-02T05:33:20.299Z,1.30
2022-09-02T05:35:56.631Z,1.30
2022-09-02T05:38:29.035Z,1.20
2022-09-02T05:41:08.633Z,1.10
2022-09-02T05:43:39.544Z,1.20
2022-09-02T05:46:12.882Z,1.27
2022-09-02T05:49:04.521Z,1.20
2022-09-02T05:51:41.117Z,1.33
2022-09-02T05:54:18.483Z,1.30
2022-09-02T05:56:53.869Z,1.10
2022-09-02T05:59:31.233Z,1.13
2022-09-02T06:02:07.276Z,1.10
2022-09-02T06:04:41.081Z,1.40
2022-09-02T06:07:19.727Z,1.17
2022-09-02T06:09:56.603Z,1.10
2022-09-02T06:12:42.433Z,1.27
2022-09-02T06:15:15.828Z,1.10
2022-09-02T06:17:49.006Z,1.20
2022-09-02T06:20:20.058Z,1.10
2022-09-02T06:22:51.461Z,1.10
2022-09-02T06:25:25.646Z,0.80
2022-09-02T06:28:02.016Z,1.10
2022-09-02T06:30:39.621Z,1.00
2022-09-02T06:33:10.367Z,1.07
2022-09-02T06:35:47.535Z,1.50
2022-09-02T06:38:21.431Z,1.00
2022-09-02T06:40:57.214Z,1.20
2022-09-02T06:43:42.386Z,1.00
2022-09-02T06:46:43.332Z,1.10
2022-09-02T06:49:18.000Z,1.00
2022-09-02T06:51:54.902Z,0.90
2022-09-02T06:55:03.874Z,0.90
2022-09-02T06:57:38.357Z,1.00
2022-09-02T07:00:14.577Z,1.10
2022-09-02T07:03:06.413Z,1.03
2022-09-02T07:15:00.835Z,1.13
2022-09-02T07:17:39.999Z,0.97
2022-09-02T07:20:14.944Z,1.13
2022-09-02T07:22:57.372Z,0.97
2022-09-02T07:25:29.884Z,1.10
2022-09-02T07:27:59.872Z,0.90
2022-09-02T07:30:34.273Z,0.97
2022-09-02T07:33:23.273Z,1.00
2022-09-02T07:35:54.663Z,1.10
2022-09-02T07:38:27.424Z,1.17
2022-09-02T07:41:00.604Z,1.00
2022-09-02T07:43:42.725Z,1.20
2022-09-02T07:46:19.589Z,0.87
2022-09-02T07:48:57.223Z,0.83
2022-09-02T07:51:30.885Z,0.90
2022-09-02T07:54:15.917Z,0.90
2022-09-02T07:56:47.611Z,1.00
2022-09-02T07:59:19.258Z,1.10
2022-09-02T08:01:51.695Z,0.93
2022-09-02T08:04:25.372Z,0.90
2022-09-02T08:06:58.986Z,0.90
2022-09-02T08:09:29.368Z,0.80
2022-09-02T08:12:08.048Z,1.00
2022-09-02T08:14:48.033Z,0.80
2022-09-02T08:17:19.359Z,0.90
2022-09-02T08:19:52.980Z,1.02
2022-09-02T08:22:26.154Z,1.05
2022-09-02T08:25:07.925Z,0.90
2022-09-02T08:30:31.807Z,0.93
2022-09-02T08:33:04.219Z,0.80
2022-09-02T08:35:37.523Z,1.23
2022-09-02T08:38:18.080Z,0.90
2022-09-02T08:40:52.564Z,0.93
2022-09-02T08:43:35.072Z,0.90
2022-09-02T08:46:15.273Z,0.90
2022-09-02T08:48:53.945Z,0.68
2022-09-02T08:51:37.055Z,0.80
2022-09-02T08:54:15.259Z,1.10
2022-09-02T08:56:45.017Z,0.90
2022-09-02T08:59:15.947Z,0.90
2022-09-02T09:01:52.259Z,0.68
2022-09-02T09:04:36.533Z,0.88
2022-09-02T09:07:22.089Z,0.85
2022-09-02T09:10:07.727Z,0.80
2022-09-02T09:13:04.352Z,0.80
2022-09-02T09:15:48.831Z,0.68
2022-09-02T09:18:36.131Z,0.70
2022-09-02T09:21:10.970Z,0.68
2022-09-02T09:23:46.834Z,0.80
2022-09-02T09:26:22.560Z,0.75
2022-09-02T09:28:55.796Z,0.82
2022-09-02T09:31:32.477Z,0.60
2022-09-02T09:34:09.705Z,0.60
2022-09-02T09:36:51.408Z,0.82
2022-09-02T09:39:27.941Z,0.60
2022-09-02T09:42:01.892Z,0.75
2022-09-02T09:44:45.766Z,0.73
2022-09-02T09:47:23.021Z,0.63
2022-09-02T09:50:10.293Z,0.60
2022-09-02T09:52:40.705Z,0.73
2022-09-02T09:55:25.209Z,0.70
2022-09-02T09:58:11.195Z,0.60
2022-09-02T10:00:41.531Z,0.70
2022-09-02T10:03:24.958Z,0.60
2022-09-02T10:05:59.227Z,0.90
2022-09-02T10:08:31.504Z,0.70
2022-09-02T10:11:06.464Z,0.80
2022-09-02T10:13:39.414Z,0.85
2022-09-02T10:16:31.147Z,0.70
2022-09-02T10:19:14.359Z,0.70
2022-09-02T10:22:17.806Z,0.50
2022-09-02T10:25:07.950Z,0.60
2022-09-02T10:27:52.542Z,0.82
2022-09-02T10:30:26.325Z,0.75
2022-09-02T10:33:21.235Z,0.70
2022-09-02T10:35:57.816Z,0.80
2022-09-02T10:38:41.868Z,0.88
2022-09-02T10:41:32.721Z,0.55
2022-09-02T10:44:32.804Z,1.00
2022-09-02T10:47:09.379Z,0.70
2022-09-02T10:50:01.709Z,0.60
2022-09-02T10:53:12.502Z,0.77
2022-09-02T10:55:57.284Z,0.60
2022-09-02T10:58:45.416Z,0.70
2022-09-02T11:01:22.291Z,0.70
2022-09-02T11:04:06.973Z,0.63
2022-09-02T11:07:01.272Z,0.50
2022-09-02T11:09:37.659Z,0.70
2022-09-02T11:12:15.988Z,0.75
2022-09-02T11:14:59.342Z,0.60
2022-09-02T11:17:39.113Z,0.70
2022-09-02T11:20:17.806Z,0.60
2022-09-02T11:22:59.102Z,0.70
2022-09-02T11:25:38.843Z,0.70
2022-09-02T11:28:27.120Z,0.77
2022-09-02T11:31:06.865Z,0.75
2022-09-02T11:33:54.013Z,0.60
2022-09-02T11:36:25.421Z,0.60
2022-09-02T11:39:03.871Z,0.90
2022-09-02T11:41:57.364Z,0.90
2022-09-02T11:45:03.475Z,0.70
2022-09-02T11:48:39.809Z,0.73
2022-09-02T11:51:38.830Z,0.68
2022-09-02T11:54:11.065Z,0.70
2022-09-02T11:56:48.857Z,0.52
2022-09-02T11:59:24.843Z,0.52
2022-09-02T12:01:57.128Z,0.68
2022-09-02T12:07:32.735Z,0.60
2022-09-02T12:10:06.370Z,0.60
2022-09-02T12:13:08.434Z,0.60
2022-09-02T12:15:40.756Z,0.70
2022-09-02T12:18:31.104Z,0.50
2022-09-02T12:21:16.521Z,0.50
2022-09-02T12:24:20.997Z,0.70
2022-09-02T12:27:23.093Z,0.80
2022-09-02T12:29:57.133Z,0.60
2022-09-02T12:33:09.862Z,0.60
2022-09-02T12:35:56.682Z,0.80
2022-09-02T12:38:40.178Z,0.50
2022-09-02T12:41:24.545Z,0.80
2022-09-02T12:44:34.933Z,0.50
2022-09-02T12:47:13.691Z,0.57
2022-09-02T12:49:50.068Z,0.77
2022-09-02T12:52:47.328Z,0.52
2022-09-02T12:55:26.563Z,0.70
2022-09-02T12:58:11.348Z,0.50
2022-09-02T13:00:59.792Z,0.68
2022-09-02T13:04:22.513Z,0.50
2022-09-02T13:07:44.293Z,0.73
2022-09-02T13:10:58.336Z,0.50
2022-09-02T13:14:18.147Z,0.70
2022-09-02T13:17:35.146Z,0.50
2022-09-02T13:20:55.833Z,0.60
2022-09-02T13:24:18.227Z,0.52
2022-09-02T13:27:38.186Z,0.70
2022-09-02T13:30:23.062Z,0.63
2022-09-02T13:33:02.071Z,0.80
2022-09-02T13:35:39.692Z,0.50
2022-09-02T13:38:12.870Z,0.60
2022-09-02T13:40:46.340Z,0.70
2022-09-02T13:43:21.948Z,0.50
2022-09-02T13:45:55.041Z,0.65
2022-09-02T13:48:28.419Z,0.60
2022-09-02T13:51:14.634Z,1.10
2022-09-02T13:54:21.609Z,0.60
2022-09-02T13:56:41.280Z,0.60
2022-09-02T13:59:11.347Z,0.50
2022-09-02T14:01:44.012Z,0.55
2022-09-02T14:04:19.744Z,0.60
2022-09-02T14:06:49.748Z,0.65
2022-09-02T14:09:27.302Z,0.70
2022-09-02T14:12:03.397Z,0.80
2022-09-02T14:14:38.112Z,0.60
2022-09-02T14:17:23.144Z,0.52
2022-09-02T14:20:24.004Z,0.70
2022-09-02T14:23:00.289Z,0.60
2022-09-02T14:25:36.736Z,0.57
2022-09-02T14:28:13.607Z,0.65
2022-09-02T14:30:58.949Z,0.60
2022-09-02T14:33:43.877Z,0.60
2022-09-02T14:36:34.946Z,0.50
2022-09-02T14:39:16.005Z,0.60
2022-09-02T14:41:48.759Z,0.70
2022-09-02T14:44:25.040Z,0.65
2022-09-02T14:46:58.309Z,0.47
2022-09-02T14:49:32.654Z,0.75
2022-09-02T14:52:05.283Z,0.50
2022-09-02T14:54:44.553Z,0.60
2022-09-02T14:57:24.571Z,0.47
2022-09-02T14:59:54.428Z,0.75
2022-09-02T15:02:30.121Z,0.60
2022-09-02T15:05:04.097Z,0.60
2022-09-02T15:07:33.761Z,0.70
2022-09-02T15:10:04.280Z,0.50
2022-09-02T15:12:36.674Z,0.65
2022-09-02T15:15:07.576Z,0.60
2022-09-02T15:17:37.115Z,0.70
2022-09-02T15:20:11.186Z,0.70
2022-09-02T15:22:40.718Z,0.60
2022-09-02T15:25:11.205Z,0.60
2022-09-02T15:27:40.753Z,0.60
2022-09-02T15:30:12.279Z,0.68
2022-09-02T15:32:42.193Z,0.65
2022-09-02T15:35:13.178Z,0.55
2022-09-02T15:37:44.160Z,0.50
2022-09-02T15:40:13.822Z,0.65
2022-09-02T15:43:01.861Z,0.70
2022-09-02T15:45:35.353Z,0.65
2022-09-02T15:48:06.248Z,0.70
2022-09-02T15:50:37.077Z,0.60
2022-09-02T15:53:06.475Z,0.70
2022-09-02T15:55:36.419Z,0.68
2022-09-02T15:58:05.861Z,0.47
2022-09-02T16:00:35.307Z,0.50
2022-09-02T16:03:06.790Z,0.45
2022-09-02T16:05:37.831Z,0.80
2022-09-02T16:08:07.268Z,0.60
2022-09-02T16:10:38.439Z,0.60
2022-09-02T16:13:08.043Z,0.60
2022-09-02T16:15:37.455Z,0.55
2022-09-02T16:18:07.028Z,0.40
2022-09-02T16:20:44.603Z,0.50
2022-09-02T16:23:29.019Z,0.50
2022-09-02T16:26:11.878Z,0.40
2022-09-02T16:28:43.984Z,0.60
2022-09-02T16:31:17.420Z,0.73
2022-09-02T16:33:52.871Z,0.50
2022-09-02T16:36:31.944Z,0.50
2022-09-02T16:39:05.408Z,0.50
2022-09-02T16:41:38.045Z,0.50
2022-09-02T16:44:09.277Z,0.70
2022-09-02T16:46:41.742Z,0.60
2022-09-02T16:49:13.289Z,0.60
2022-09-02T16:51:44.546Z,0.60
2022-09-02T16:54:17.747Z,0.60
2022-09-02T16:56:50.685Z,0.50
2022-09-02T16:59:20.482Z,0.50
2022-09-02T17:01:50.071Z,0.65
2022-09-02T17:04:19.638Z,0.60
2022-09-02T17:06:50.494Z,0.55
2022-09-02T17:09:20.771Z,0.60
2022-09-02T17:11:50.367Z,0.60
2022-09-02T17:14:23.340Z,0.50
2022-09-02T17:16:53.056Z,0.73
2022-09-02T17:19:24.473Z,0.50
2022-09-02T17:21:58.309Z,0.60
2022-09-02T17:24:30.875Z,0.63
2022-09-02T17:27:02.231Z,0.60
2022-09-02T17:29:48.531Z,0.50
2022-09-02T17:32:19.076Z,0.70
2022-09-02T17:34:50.483Z,0.45
2022-09-02T17:37:40.410Z,0.63
2022-09-02T17:40:45.634Z,0.57
2022-09-02T17:43:33.564Z,0.70
2022-09-02T17:46:21.954Z,0.60
2022-09-02T17:49:17.926Z,0.82
2022-09-02T17:52:10.420Z,0.60
2022-09-02T17:54:59.510Z,0.60
2022-09-02T17:58:02.956Z,0.75
2022-09-02T18:00:56.878Z,0.57
2022-09-02T18:03:57.935Z,0.63
2022-09-02T18:06:48.112Z,0.70
2022-09-02T18:09:35.816Z,0.38
2022-09-02T18:12:26.854Z,0.50
2022-09-02T18:15:19.684Z,0.50
2022-09-02T18:18:07.799Z,0.60
2022-09-02T18:21:04.065Z,0.60
2022-09-02T18:24:01.620Z,0.50
2022-09-02T18:27:01.238Z,0.55
2022-09-02T18:30:04.046Z,0.57
2022-09-02T18:33:36.435Z,0.43
2022-09-02T18:36:39.329Z,0.55
2022-09-02T18:39:44.374Z,0.60
2022-09-02T18:42:46.570Z,0.60
2022-09-02T18:45:45.190Z,0.50
2022-09-02T18:48:36.055Z,0.60
2022-09-02T18:51:35.706Z,0.30
2022-09-02T18:54:28.933Z,0.60
2022-09-02T18:57:17.502Z,0.60
2022-09-02T19:00:09.712Z,0.50
2022-09-02T19:03:02.563Z,0.40
2022-09-02T19:05:50.768Z,0.38
2022-09-02T19:08:38.334Z,0.50
2022-09-02T19:11:27.432Z,0.50
2022-09-02T19:14:27.481Z,0.40
2022-09-02T19:17:15.283Z,0.57
2022-09-02T19:20:05.559Z,0.50
2022-09-02T19:22:57.390Z,0.50
2022-09-02T19:25:46.278Z,0.70
2022-09-02T19:28:34.459Z,0.57
2022-09-02T19:31:27.169Z,0.50
2022-09-02T19:34:16.423Z,0.52
2022-09-02T19:37:06.766Z,0.63
2022-09-02T19:39:55.233Z,0.50
2022-09-02T19:42:43.594Z,0.55
2022-09-02T19:45:36.230Z,0.40
2022-09-02T19:48:24.596Z,0.50
2022-09-02T19:51:17.028Z,0.68
2022-09-02T19:54:08.778Z,0.50
2022-09-02T19:56:56.870Z,0.50
2022-09-02T19:59:45.001Z,0.50
2022-09-02T20:02:35.886Z,0.35
2022-09-02T20:05:29.576Z,0.60
2022-09-02T20:08:31.273Z,0.45
2022-09-02T20:11:21.653Z,0.40
2022-09-02T20:14:10.580Z,0.80
2022-09-02T20:17:02.501Z,0.60
2022-09-02T20:19:50.918Z,0.50
2022-09-02T20:22:50.383Z,0.50
2022-09-02T20:26:03.206Z,0.68
2022-09-02T20:29:08.612Z,0.50
2022-09-02T20:32:24.547Z,0.43
2022-09-02T20:40:33.653Z,0.83
2022-09-02T21:51:30.335Z,0.50
2022-09-02T22:29:07.362Z,0.40
2022-09-02T22:33:00.804Z,0.50
2022-09-02T22:53:04.452Z,0.60
2022-09-02T22:56:49.764Z,0.53
